createdAt,value
2018-02-27T04:01:48.699Z,4.00
2018-02-27T04:04:17.020Z,3.30
2018-02-27T04:06:45.320Z,2.20
2018-02-27T04:09:13.631Z,0.90
2018-02-27T04:11:45.719Z,3.20
2018-02-27T04:14:14.049Z,4.28
2018-02-27T04:16:43.160Z,2.10
2018-02-27T04:19:11.448Z,3.50
2018-02-27T04:21:43.033Z,2.75
2018-02-27T04:24:11.345Z,1.98
2018-02-27T04:26:39.640Z,2.60
2018-02-27T04:29:08.724Z,4.37
2018-02-27T04:31:37.039Z,3.65
2018-02-27T04:34:11.678Z,3.15
2018-02-27T04:36:40.737Z,3.45
2018-02-27T04:39:09.816Z,3.58
2018-02-27T04:41:38.114Z,2.58
2018-02-27T04:44:07.193Z,3.53
2018-02-27T04:46:36.250Z,4.12
2018-02-27T04:49:04.573Z,3.72
2018-02-27T04:51:33.638Z,4.07
2018-02-27T04:54:01.961Z,4.03
2018-02-27T04:56:30.267Z,4.43
2018-02-27T04:58:58.641Z,3.80
2018-02-27T05:01:26.940Z,4.30
2018-02-27T05:03:55.272Z,4.50
2018-02-27T05:06:23.596Z,4.15
2018-02-27T05:08:51.899Z,3.78
2018-02-27T05:11:20.211Z,4.30
2018-02-27T05:13:48.517Z,2.42
2018-02-27T05:16:16.842Z,3.30
2018-02-27T05:18:45.911Z,2.05
2018-02-27T05:21:14.242Z,2.80
2018-02-27T05:23:42.552Z,3.17
2018-02-27T05:26:10.877Z,1.77
2018-02-27T05:28:39.947Z,3.47
2018-02-27T05:31:08.268Z,3.10
2018-02-27T05:33:36.572Z,3.47
2018-02-27T05:36:04.896Z,3.85
2018-02-27T05:38:46.992Z,4.78
2018-02-27T05:41:16.081Z,3.72
2018-02-27T05:43:44.384Z,3.17
2018-02-27T05:46:12.714Z,5.95
2018-02-27T05:48:41.018Z,4.40
2018-02-27T05:51:10.116Z,7.03
2018-02-27T05:53:39.196Z,6.70
2018-02-27T05:56:07.532Z,7.20
2018-02-27T05:58:35.831Z,6.00
2018-02-27T06:01:04.164Z,5.65
2018-02-27T06:03:32.473Z,3.90
2018-02-27T06:06:00.792Z,3.45
2018-02-27T06:08:32.928Z,5.15
2018-02-27T06:11:01.252Z,2.62
2018-02-27T06:13:30.328Z,4.82
2018-02-27T06:15:58.652Z,1.90
2018-02-27T06:18:36.952Z,5.28
2018-02-27T06:21:05.271Z,3.17
2018-02-27T06:23:33.591Z,2.10
2018-02-27T06:26:01.926Z,3.17
2018-02-27T06:28:30.228Z,3.62
2018-02-27T06:30:58.560Z,3.33
2018-02-27T06:33:26.884Z,5.85
2018-02-27T06:35:55.196Z,7.53
2018-02-27T06:38:23.519Z,5.32
2018-02-27T06:40:51.824Z,2.58
2018-02-27T06:43:20.928Z,6.15
2018-02-27T06:45:49.996Z,2.20
2018-02-27T06:48:19.294Z,3.28
2018-02-27T06:50:47.600Z,7.28
2018-02-27T06:53:16.692Z,8.45
2018-02-27T06:55:45.769Z,11.63
2018-02-27T06:58:14.110Z,24.27
2018-02-27T07:00:42.453Z,20.20
2018-02-27T07:03:10.796Z,10.18
2018-02-27T07:05:39.103Z,10.38
2018-02-27T07:08:07.437Z,5.85
2018-02-27T07:10:37.660Z,5.20
2018-02-27T07:13:05.996Z,11.77
2018-02-27T07:15:34.315Z,8.23
2018-02-27T07:18:03.637Z,8.20
2018-02-27T07:20:31.940Z,4.65
2018-02-27T07:23:01.028Z,5.07
2018-02-27T07:25:30.102Z,7.20
2018-02-27T07:27:58.438Z,8.23
2018-02-27T07:30:26.747Z,8.88
2018-02-27T07:32:55.082Z,5.60
2018-02-27T07:35:23.396Z,9.30
2018-02-27T07:37:51.716Z,7.25
2018-02-27T07:40:20.791Z,5.45
2018-02-27T07:42:49.096Z,7.50
2018-02-27T07:45:17.437Z,7.53
2018-02-27T07:47:53.856Z,7.78
2018-02-27T07:50:22.184Z,6.53
2018-02-27T07:52:53.719Z,5.45
2018-02-27T07:55:22.044Z,4.65
2018-02-27T07:57:50.450Z,6.25
2018-02-27T08:00:20.717Z,6.25
2018-02-27T08:02:49.025Z,10.50
2018-02-27T08:05:17.351Z,7.28
2018-02-27T08:07:45.656Z,12.50
2018-02-27T08:10:13.976Z,6.12
2018-02-27T08:12:42.277Z,9.18
2018-02-27T08:15:10.595Z,8.13
2018-02-27T08:17:38.948Z,9.65
2018-02-27T08:20:07.288Z,6.55
2018-02-27T08:22:35.589Z,6.18
2018-02-27T08:25:03.920Z,9.93
2018-02-27T08:27:32.226Z,10.52
2018-02-27T08:30:06.195Z,10.68
2018-02-27T08:32:35.269Z,7.93
2018-02-27T08:35:03.571Z,7.20
2018-02-27T08:37:32.674Z,10.45
2018-02-27T08:40:01.740Z,6.62
2018-02-27T08:42:34.112Z,9.15
2018-02-27T08:45:02.412Z,8.68
2018-02-27T08:47:30.735Z,8.93
2018-02-27T08:49:59.037Z,7.20
2018-02-27T08:52:27.371Z,10.85
2018-02-27T08:54:55.672Z,9.32
2018-02-27T08:57:23.995Z,7.90
2018-02-27T08:59:53.063Z,7.07
2018-02-27T09:02:23.409Z,6.35
2018-02-27T09:04:51.705Z,7.45
2018-02-27T09:07:20.023Z,6.07
2018-02-27T09:09:48.345Z,7.62
2018-02-27T09:12:16.673Z,9.95
2018-02-27T09:14:58.007Z,7.53
2018-02-27T09:17:26.344Z,8.55
2018-02-27T09:19:54.652Z,10.85
2018-02-27T09:22:22.959Z,7.68
2018-02-27T09:24:51.293Z,7.03
2018-02-27T09:27:19.588Z,8.13
2018-02-27T09:29:47.917Z,7.68
2018-02-27T09:32:16.236Z,11.20
2018-02-27T09:34:44.556Z,3.42
2018-02-27T09:37:12.861Z,11.35
2018-02-27T09:39:41.185Z,7.32
2018-02-27T09:42:10.258Z,8.10
2018-02-27T09:44:38.617Z,8.57
2018-02-27T09:47:06.919Z,6.07
2018-02-27T09:49:35.265Z,7.82
2018-02-27T09:52:03.572Z,6.72
2018-02-27T09:54:32.761Z,5.68
2018-02-27T09:57:01.060Z,5.15
2018-02-27T09:59:30.168Z,5.93
2018-02-27T10:01:59.240Z,7.12
2018-02-27T10:04:27.577Z,5.28
2018-02-27T10:06:55.884Z,4.80
2018-02-27T10:09:24.187Z,7.07
2018-02-27T10:11:53.278Z,8.65
2018-02-27T10:14:21.579Z,8.98
2018-02-27T10:16:49.903Z,4.07
2018-02-27T10:19:19.204Z,7.45
2018-02-27T10:21:47.528Z,7.68
2018-02-27T10:24:15.849Z,5.68
2018-02-27T10:26:48.587Z,8.20
2018-02-27T10:29:17.666Z,7.10
2018-02-27T10:31:46.757Z,9.48
2018-02-27T10:34:15.059Z,10.52
2018-02-27T10:36:43.405Z,6.43
2018-02-27T10:39:11.704Z,7.72
2018-02-27T10:41:40.788Z,6.72
2018-02-27T10:44:09.088Z,4.85
2018-02-27T10:46:38.199Z,9.45
2018-02-27T10:49:06.509Z,9.23
2018-02-27T10:51:35.828Z,3.35
2018-02-27T10:54:04.126Z,9.25
2018-02-27T10:56:32.451Z,8.20
2018-02-27T10:59:00.747Z,7.65
2018-02-27T11:01:29.080Z,6.70
2018-02-27T11:03:57.388Z,5.60
2018-02-27T11:06:25.730Z,6.12
2018-02-27T11:08:54.028Z,7.20
2018-02-27T11:11:24.296Z,6.97
2018-02-27T11:13:52.593Z,3.87
2018-02-27T11:16:21.685Z,5.00
2018-02-27T11:18:50.753Z,7.32
2018-02-27T11:21:19.088Z,7.32
2018-02-27T11:23:47.389Z,4.80
2018-02-27T11:26:15.709Z,5.75
2018-02-27T11:28:44.774Z,5.10
2018-02-27T11:31:13.097Z,5.75
2018-02-27T11:33:42.160Z,4.70
2018-02-27T11:36:16.072Z,8.93
2018-02-27T11:38:44.372Z,6.97
2018-02-27T11:41:13.464Z,5.20
2018-02-27T11:43:41.763Z,7.20
2018-02-27T11:46:10.088Z,6.45
2018-02-27T11:48:38.388Z,4.37
2018-02-27T11:51:07.483Z,7.03
2018-02-27T11:53:35.784Z,3.53
2018-02-27T11:56:04.114Z,5.00
2018-02-27T11:58:32.419Z,4.87
2018-02-27T12:01:07.612Z,6.22
2018-02-27T12:03:35.910Z,6.15
2018-02-27T12:06:04.244Z,8.90
2018-02-27T12:08:32.571Z,6.40
2018-02-27T12:11:06.572Z,5.05
2018-02-27T12:13:34.898Z,6.10
2018-02-27T12:16:03.196Z,4.40
2018-02-27T12:18:31.520Z,3.05
2018-02-27T12:20:59.816Z,3.10
2018-02-27T12:23:28.911Z,6.95
2018-02-27T12:25:58.992Z,5.45
2018-02-27T12:28:27.320Z,3.75
2018-02-27T12:30:55.642Z,4.05
2018-02-27T12:33:23.965Z,4.25
2018-02-27T12:35:53.040Z,5.22
2018-02-27T12:38:26.748Z,5.97
2018-02-27T12:40:55.053Z,5.50
2018-02-27T12:43:23.384Z,4.45
2018-02-27T12:45:51.709Z,4.85
2018-02-27T12:48:20.009Z,5.55
2018-02-27T12:50:48.338Z,6.65
2018-02-27T12:53:17.609Z,3.90
2018-02-27T12:55:45.933Z,5.12
2018-02-27T12:58:15.062Z,6.12
2018-02-27T13:00:44.122Z,4.15
2018-02-27T13:03:13.201Z,2.80
2018-02-27T13:05:41.527Z,6.32
2018-02-27T13:08:09.827Z,4.90
2018-02-27T13:10:38.132Z,4.32
2018-02-27T13:13:06.456Z,3.72
2018-02-27T13:15:34.756Z,3.20
2018-02-27T13:18:03.080Z,5.55
2018-02-27T13:20:32.147Z,4.30
2018-02-27T13:23:00.468Z,3.75
2018-02-27T13:25:28.785Z,4.87
2018-02-27T13:27:57.107Z,4.62
2018-02-27T13:30:26.172Z,4.40
2018-02-27T13:32:54.499Z,3.90
2018-02-27T13:35:34.864Z,3.90
2018-02-27T13:38:03.194Z,6.40
2018-02-27T13:40:31.492Z,6.85
2018-02-27T13:43:00.589Z,6.30
2018-02-27T13:45:29.663Z,3.87
2018-02-27T13:47:57.993Z,6.45
2018-02-27T13:50:26.292Z,4.05
2018-02-27T13:52:54.619Z,6.03
2018-02-27T13:55:24.691Z,6.20
2018-02-27T13:57:53.023Z,3.90
2018-02-27T14:00:21.336Z,4.07
2018-02-27T14:02:49.661Z,3.60
2018-02-27T14:05:17.965Z,6.97
2018-02-27T14:07:46.299Z,4.43
2018-02-27T14:10:14.608Z,4.37
2018-02-27T14:12:43.693Z,4.30
2018-02-27T14:15:12.755Z,3.47
2018-02-27T14:17:41.080Z,2.45
2018-02-27T14:20:10.587Z,5.05
2018-02-27T14:22:38.924Z,3.00
2018-02-27T14:25:07.226Z,5.45
2018-02-27T14:27:39.436Z,5.70
2018-02-27T14:30:07.749Z,4.40
2018-02-27T14:32:36.076Z,2.67
2018-02-27T14:35:04.371Z,4.27
2018-02-27T14:37:32.688Z,2.47
2018-02-27T14:40:00.991Z,3.00
2018-02-27T14:42:30.087Z,3.05
2018-02-27T14:44:59.157Z,2.97
2018-02-27T14:47:27.479Z,3.95
2018-02-27T14:49:55.779Z,4.72
2018-02-27T14:52:24.103Z,3.70
2018-02-27T14:54:53.177Z,5.65
2018-02-27T14:57:21.501Z,2.30
2018-02-27T14:59:49.822Z,3.25
2018-02-27T15:02:18.148Z,5.18
2018-02-27T15:04:47.211Z,3.17
2018-02-27T15:07:15.533Z,2.37
2018-02-27T15:09:43.837Z,4.32
2018-02-27T15:12:12.157Z,4.47
2018-02-27T15:14:41.235Z,5.75
2018-02-27T15:17:09.568Z,5.40
2018-02-27T15:19:37.874Z,4.50
2018-02-27T15:22:06.201Z,4.03
2018-02-27T15:24:35.273Z,6.33
2018-02-27T15:27:03.603Z,4.35
2018-02-27T15:29:31.913Z,5.07
2018-02-27T15:32:00.244Z,3.60
2018-02-27T15:34:28.543Z,4.72
2018-02-27T15:36:56.880Z,4.60
2018-02-27T15:39:25.943Z,4.72
2018-02-27T15:41:54.276Z,5.05
2018-02-27T15:44:22.582Z,4.28
2018-02-27T15:46:50.912Z,4.75
2018-02-27T15:49:19.979Z,6.50
2018-02-27T15:51:48.302Z,5.10
2018-02-27T15:54:21.221Z,3.92
2018-02-27T15:56:49.537Z,4.15
2018-02-27T15:59:25.433Z,7.53
2018-02-27T16:01:53.756Z,3.30
2018-02-27T16:04:22.055Z,3.70
2018-02-27T16:06:51.149Z,3.50
2018-02-27T16:09:20.227Z,6.12
2018-02-27T16:11:48.556Z,4.70
2018-02-27T16:14:16.847Z,3.83
2018-02-27T16:16:45.181Z,5.12
2018-02-27T16:19:14.253Z,4.07
2018-02-27T16:21:42.577Z,4.57
2018-02-27T16:24:11.804Z,4.53
2018-02-27T16:26:40.104Z,4.95
2018-02-27T16:29:08.424Z,3.62
2018-02-27T16:31:36.733Z,5.50
2018-02-27T16:34:05.099Z,7.50
2018-02-27T16:36:33.384Z,5.45
2018-02-27T16:39:01.707Z,8.15
2018-02-27T16:41:30.788Z,4.00
2018-02-27T16:43:59.114Z,4.82
2018-02-27T16:46:27.421Z,5.22
2018-02-27T16:48:55.738Z,4.45
2018-02-27T16:51:24.816Z,5.05
2018-02-27T16:53:53.139Z,5.30
2018-02-27T16:56:21.445Z,5.18
2018-02-27T16:58:49.767Z,6.97
2018-02-27T17:01:18.843Z,6.87
2018-02-27T17:03:47.167Z,4.68
2018-02-27T17:06:15.472Z,7.22
2018-02-27T17:08:43.791Z,3.33
2018-02-27T17:11:13.867Z,8.75
2018-02-27T17:13:42.198Z,8.45
2018-02-27T17:16:11.296Z,6.30
2018-02-27T17:18:40.383Z,7.53
2018-02-27T17:21:09.456Z,7.53
2018-02-27T17:23:37.791Z,7.12
2018-02-27T17:26:06.100Z,6.35
2018-02-27T17:28:34.403Z,5.55
2018-02-27T17:31:02.732Z,6.15
2018-02-27T17:33:31.033Z,7.75
2018-02-27T17:35:59.351Z,7.22
2018-02-27T17:38:28.419Z,7.15
2018-02-27T17:40:56.763Z,8.57
2018-02-27T17:43:26.072Z,6.12
2018-02-27T17:45:54.395Z,7.97
2018-02-27T17:48:23.464Z,8.30
2018-02-27T17:50:51.787Z,7.50
2018-02-27T17:53:20.092Z,8.43
2018-02-27T17:55:48.425Z,10.63
2018-02-27T17:58:16.752Z,14.50
2018-02-27T18:00:45.514Z,7.97
2018-02-27T18:03:14.193Z,9.95
2018-02-27T18:05:44.523Z,12.95
2018-02-27T18:08:12.827Z,13.32
2018-02-27T18:10:41.160Z,11.32
2018-02-27T18:13:11.195Z,6.35
2018-02-27T18:15:39.541Z,6.15
2018-02-27T18:18:09.755Z,6.87
2018-02-27T18:20:39.972Z,7.97
2018-02-27T18:23:08.288Z,6.62
2018-02-27T18:25:37.558Z,9.05
2018-02-27T18:28:05.896Z,8.25
2018-02-27T18:30:36.426Z,7.45
2018-02-27T18:33:06.446Z,8.63
2018-02-27T18:35:34.846Z,14.65
2018-02-27T18:38:03.174Z,11.10
2018-02-27T18:40:31.492Z,11.40
2018-02-27T18:42:59.823Z,13.07
2018-02-27T18:45:28.127Z,12.82
2018-02-27T18:47:56.460Z,14.23
2018-02-27T18:50:24.768Z,15.90
2018-02-27T18:52:53.095Z,12.50
2018-02-27T18:55:21.408Z,11.93
2018-02-27T18:57:49.736Z,10.88
2018-02-27T19:00:18.043Z,10.43
2018-02-27T19:02:46.373Z,9.23
2018-02-27T19:05:14.683Z,11.82
2018-02-27T19:07:43.018Z,9.10
2018-02-27T19:10:11.767Z,10.43
2018-02-27T19:12:40.868Z,10.15
2018-02-27T19:15:09.940Z,10.23
2018-02-27T19:17:38.252Z,10.05
2018-02-27T19:20:07.388Z,10.02
2018-02-27T19:22:35.700Z,10.57
2018-02-27T19:25:04.036Z,11.20
2018-02-27T19:27:32.343Z,9.90
2018-02-27T19:30:00.672Z,9.68
2018-02-27T19:32:28.973Z,10.23
2018-02-27T19:34:57.295Z,10.48
2018-02-27T19:37:25.612Z,10.15
2018-02-27T19:39:53.941Z,11.60
2018-02-27T19:42:22.252Z,12.15
2018-02-27T19:44:50.588Z,10.52
2018-02-27T19:47:18.898Z,11.95
2018-02-27T19:49:47.992Z,10.18
2018-02-27T19:52:17.095Z,11.93
2018-02-27T19:54:46.189Z,12.10
2018-02-27T19:57:15.269Z,11.55
2018-02-27T19:59:43.597Z,11.32
2018-02-27T20:02:11.912Z,11.32
2018-02-27T20:04:40.371Z,9.95
2018-02-27T20:07:08.704Z,12.13
2018-02-27T20:09:37.036Z,12.52
2018-02-27T20:12:07.364Z,11.35
2018-02-27T20:14:35.866Z,10.10
2018-02-27T20:17:04.243Z,9.60
2018-02-27T20:19:32.597Z,9.35
2018-02-27T20:22:01.028Z,9.90
2018-02-27T20:24:30.401Z,9.13
2018-02-27T20:26:58.913Z,9.77
2018-02-27T20:29:29.208Z,11.00
2018-02-27T20:31:57.520Z,9.60
2018-02-27T20:34:25.843Z,11.10
2018-02-27T20:36:54.147Z,10.18
2018-02-27T20:39:26.216Z,7.60
2018-02-27T20:41:54.516Z,8.95
2018-02-27T20:44:22.840Z,8.13
2018-02-27T20:46:51.143Z,9.77
2018-02-27T20:49:19.480Z,6.50
2018-02-27T20:51:48.541Z,9.88
2018-02-27T20:54:17.633Z,8.98
2018-02-27T20:56:46.699Z,8.13
2018-02-27T20:59:15.026Z,9.02
2018-02-27T21:01:43.334Z,7.90
2018-02-27T21:04:11.650Z,8.32
2018-02-27T21:06:40.720Z,7.95
2018-02-27T21:09:09.044Z,8.20
2018-02-27T21:11:38.119Z,6.65
2018-02-27T21:14:07.212Z,7.12
2018-02-27T21:16:36.281Z,8.40
2018-02-27T21:19:05.589Z,5.53
2018-02-27T21:21:33.888Z,2.80
2018-02-27T21:24:02.232Z,7.55
2018-02-27T21:26:30.531Z,6.07
2018-02-27T21:28:58.843Z,8.23
2018-02-27T21:31:27.152Z,6.30
2018-02-27T21:33:55.463Z,6.55
2018-02-27T21:36:23.772Z,7.10
2018-02-27T21:38:52.067Z,8.57
2018-02-27T21:41:20.390Z,8.85
2018-02-27T21:43:48.687Z,6.97
2018-02-27T21:46:18.788Z,8.00
2018-02-27T21:48:47.094Z,5.12
2018-02-27T21:51:16.176Z,9.00
2018-02-27T21:53:45.245Z,8.52
2018-02-27T21:56:13.568Z,8.02
2018-02-27T21:58:41.871Z,9.60
2018-02-27T22:01:10.199Z,5.90
2018-02-27T22:03:38.494Z,6.70
2018-02-27T22:06:07.583Z,7.32
2018-02-27T22:08:35.948Z,7.45
2018-02-27T22:11:04.268Z,9.90
2018-02-27T22:13:32.565Z,9.80
2018-02-27T22:16:00.891Z,8.73
2018-02-27T22:18:29.963Z,9.25
2018-02-27T22:20:58.279Z,6.00
2018-02-27T22:23:26.583Z,8.43
2018-02-27T22:25:54.912Z,7.87
2018-02-27T22:28:23.211Z,8.35
2018-02-27T22:30:51.532Z,7.70
2018-02-27T22:33:19.835Z,8.90
2018-02-27T22:35:48.160Z,7.20
2018-02-27T22:38:16.460Z,6.50
2018-02-27T22:40:44.787Z,7.75
2018-02-27T22:43:13.857Z,7.90
2018-02-27T22:45:50.532Z,7.40
2018-02-27T22:48:18.827Z,8.93
2018-02-27T22:50:47.164Z,3.97
2018-02-27T22:53:15.463Z,8.80
2018-02-27T22:55:43.780Z,9.60
2018-02-27T22:58:12.094Z,7.70
2018-02-27T23:00:40.386Z,8.70
2018-02-27T23:03:08.709Z,8.50
2018-02-27T23:05:37.011Z,9.50
2018-02-27T23:08:05.333Z,7.50
2018-02-27T23:10:33.638Z,9.25
2018-02-27T23:13:02.729Z,9.02
2018-02-27T23:15:31.800Z,10.60
2018-02-27T23:18:00.127Z,8.90
2018-02-27T23:20:28.427Z,9.45
2018-02-27T23:22:56.748Z,9.15
2018-02-27T23:25:28.677Z,9.55
2018-02-27T23:27:57.088Z,9.32
2018-02-27T23:30:26.732Z,9.15
2018-02-27T23:32:55.992Z,8.90
2018-02-27T23:35:26.868Z,9.77
2018-02-27T23:37:55.196Z,9.13
2018-02-27T23:40:23.491Z,9.50
2018-02-27T23:42:52.578Z,9.88
2018-02-27T23:45:21.664Z,9.68
2018-02-27T23:47:49.978Z,8.93
